createdAt,value
2023-04-16T00:02:19.430Z,3.50
2023-04-16T00:07:22.493Z,3.97
2023-04-16T00:12:25.619Z,3.80
2023-04-16T00:17:30.256Z,4.50
2023-04-16T00:22:33.279Z,4.10
2023-04-16T00:27:36.589Z,4.50
2023-04-16T00:32:40.899Z,4.57
2023-04-16T00:37:44.014Z,4.80
2023-04-16T00:42:46.987Z,5.23
2023-04-16T00:47:51.763Z,3.53
2023-04-16T00:52:54.970Z,4.33
2023-04-16T00:57:58.080Z,4.13
2023-04-16T01:03:02.964Z,3.43
2023-04-16T01:08:06.824Z,3.90
2023-04-16T01:13:10.067Z,3.90
2023-04-16T01:18:18.462Z,4.13
2023-04-16T01:23:23.116Z,4.57
2023-04-16T01:28:26.178Z,5.03
2023-04-16T01:33:29.166Z,5.90
2023-04-16T01:38:33.935Z,5.67
2023-04-16T01:43:39.616Z,5.63
2023-04-16T01:48:43.514Z,5.40
2023-04-16T01:53:47.897Z,5.30
2023-04-16T01:58:51.465Z,5.97
2023-04-16T02:03:55.480Z,6.27
2023-04-16T02:09:00.152Z,5.30
2023-04-16T02:14:03.259Z,5.10
2023-04-16T02:19:06.590Z,4.90
2023-04-16T02:24:13.210Z,4.10
2023-04-16T02:29:17.274Z,4.60
2023-04-16T02:34:27.242Z,3.63
2023-04-16T02:39:31.775Z,5.03
2023-04-16T02:44:34.921Z,4.27
2023-04-16T02:49:37.910Z,4.93
2023-04-16T02:54:42.239Z,5.80
2023-04-16T02:59:45.336Z,5.47
2023-04-16T03:04:50.600Z,4.73
2023-04-16T03:09:54.964Z,6.50
2023-04-16T03:14:58.283Z,5.70
2023-04-16T03:20:01.482Z,6.50
2023-04-16T03:25:06.699Z,6.60
2023-04-16T03:30:12.415Z,6.10
2023-04-16T03:35:15.981Z,5.77
2023-04-16T03:40:20.515Z,6.63
2023-04-16T03:45:23.671Z,6.43
2023-04-16T03:50:27.765Z,5.80
2023-04-16T03:55:32.616Z,5.83
2023-04-16T04:00:35.666Z,5.33
2023-04-16T04:05:47.636Z,5.20
2023-04-16T04:10:56.174Z,6.03
2023-04-16T04:16:00.990Z,6.00
2023-04-16T04:21:07.145Z,5.80
2023-04-16T04:26:12.019Z,6.23
2023-04-16T04:31:16.595Z,7.27
2023-04-16T04:36:20.485Z,8.20
2023-04-16T04:41:27.029Z,6.90
2023-04-16T04:46:30.243Z,6.80
2023-04-16T04:51:33.436Z,6.67
2023-04-16T04:56:37.955Z,7.60
2023-04-16T05:01:41.107Z,8.47
2023-04-16T05:06:44.451Z,10.03
2023-04-16T05:11:48.812Z,9.63
2023-04-16T05:16:51.835Z,9.47
2023-04-16T05:21:55.547Z,9.83
2023-04-16T05:26:59.856Z,8.70
2023-04-16T05:32:02.858Z,9.20
2023-04-16T05:37:05.870Z,9.17
2023-04-16T05:42:10.200Z,9.43
2023-04-16T05:47:13.286Z,8.53
2023-04-16T05:52:16.416Z,9.87
2023-04-16T05:57:20.823Z,10.00
2023-04-16T06:02:24.029Z,9.80
2023-04-16T06:07:27.171Z,8.10
2023-04-16T06:12:31.828Z,8.83
2023-04-16T06:17:34.881Z,9.63
2023-04-16T06:22:38.130Z,8.73
2023-04-16T06:27:42.703Z,9.37
2023-04-16T06:32:46.568Z,10.63
2023-04-16T06:37:49.737Z,9.93
2023-04-16T06:42:54.581Z,10.03
2023-04-16T06:47:59.011Z,9.13
2023-04-16T06:53:02.375Z,8.77
2023-04-16T06:58:06.915Z,11.00
2023-04-16T07:03:10.327Z,10.40
2023-04-16T07:08:13.446Z,11.27
2023-04-16T07:13:18.645Z,10.20
2023-04-16T07:18:21.705Z,10.70
2023-04-16T07:23:24.885Z,9.27
2023-04-16T07:28:29.242Z,8.90
2023-04-16T07:33:32.340Z,9.07
2023-04-16T07:38:35.917Z,10.10
2023-04-16T07:49:03.391Z,9.67
2023-04-16T07:54:06.550Z,8.20
2023-04-16T07:59:21.922Z,9.30
2023-04-16T08:04:26.767Z,9.10
2023-04-16T08:09:29.985Z,9.07
2023-04-16T08:14:35.699Z,9.93
2023-04-16T08:19:38.818Z,9.07
2023-04-16T08:24:42.077Z,9.60
2023-04-16T08:29:46.503Z,9.23
2023-04-16T08:34:49.751Z,9.20
2023-04-16T08:39:52.833Z,9.00
2023-04-16T08:45:05.709Z,9.97
2023-04-16T08:50:12.674Z,9.87
2023-04-16T08:55:17.489Z,8.83
2023-04-16T09:00:22.422Z,8.83
2023-04-16T09:05:26.457Z,8.83
2023-04-16T09:10:29.852Z,8.73
2023-04-16T09:15:36.741Z,9.63
2023-04-16T09:20:40.292Z,8.17
2023-04-16T09:25:43.400Z,8.47
2023-04-16T09:30:48.141Z,7.53
2023-04-16T09:35:53.078Z,8.27
2023-04-16T09:41:07.386Z,8.30
2023-04-16T09:46:12.999Z,8.43
2023-04-16T09:51:16.406Z,8.53
2023-04-16T09:56:19.493Z,9.63
2023-04-16T10:01:24.957Z,8.13
2023-04-16T10:06:31.305Z,8.83
2023-04-16T10:11:35.038Z,8.57
2023-04-16T10:16:41.248Z,8.70
2023-04-16T10:21:44.518Z,8.37
2023-04-16T10:26:51.611Z,8.50
2023-04-16T10:31:57.359Z,6.67
2023-04-16T10:37:00.734Z,7.30
2023-04-16T10:42:11.147Z,7.20
2023-04-16T10:47:16.642Z,8.10
2023-04-16T10:52:22.485Z,9.00
2023-04-16T10:57:31.137Z,7.90
2023-04-16T11:02:36.026Z,8.47
2023-04-16T11:07:49.731Z,8.30
2023-04-16T11:12:54.463Z,9.00
2023-04-16T11:17:59.440Z,9.20
2023-04-16T11:23:02.587Z,7.67
2023-04-16T11:28:05.981Z,8.40
2023-04-16T11:33:13.008Z,8.47
2023-04-16T11:38:16.240Z,7.63
2023-04-16T11:43:19.377Z,7.60
2023-04-16T11:48:24.002Z,8.50
2023-04-16T11:53:29.653Z,8.57
2023-04-16T11:58:32.820Z,9.07
2023-04-16T12:03:46.384Z,9.50
2023-04-16T12:08:50.200Z,8.53
2023-04-16T12:14:09.633Z,9.43
2023-04-16T12:19:14.449Z,8.90
2023-04-16T12:24:20.820Z,9.17
2023-04-16T12:29:25.984Z,9.37
2023-04-16T12:34:47.932Z,9.20
2023-04-16T12:39:52.224Z,8.90
2023-04-16T12:44:55.201Z,8.40
2023-04-16T12:49:59.674Z,9.77
2023-04-16T12:55:03.101Z,9.23
2023-04-16T13:00:08.125Z,9.43
2023-04-16T13:05:13.253Z,8.73
2023-04-16T13:10:17.007Z,9.50
2023-04-16T13:15:20.697Z,9.23
2023-04-16T13:20:25.180Z,9.70
2023-04-16T13:25:28.245Z,9.43
2023-04-16T13:30:31.852Z,9.10
2023-04-16T13:35:37.207Z,8.87
2023-04-16T13:40:40.235Z,8.73
2023-04-16T13:45:43.270Z,7.60
2023-04-16T13:50:47.729Z,7.83
2023-04-16T13:55:51.523Z,8.00
2023-04-16T14:00:54.754Z,8.50
2023-04-16T14:05:59.294Z,8.13
2023-04-16T14:11:02.689Z,9.23
2023-04-16T14:16:06.217Z,8.17
2023-04-16T14:21:10.862Z,8.27
2023-04-16T14:26:14.390Z,8.87
2023-04-16T14:31:18.125Z,8.87
2023-04-16T14:36:22.830Z,8.10
2023-04-16T14:41:27.255Z,8.43
2023-04-16T14:46:30.622Z,8.27
2023-04-16T14:51:35.211Z,8.37
2023-04-16T14:56:38.563Z,7.93
2023-04-16T15:01:42.114Z,8.93
2023-04-16T15:06:46.829Z,9.17
2023-04-16T15:11:49.968Z,9.50
2023-04-16T15:16:53.313Z,9.43
2023-04-16T15:21:57.902Z,9.93
2023-04-16T15:27:02.482Z,9.87
2023-04-16T15:32:07.017Z,10.03
2023-04-16T15:37:12.048Z,10.07
2023-04-16T15:42:15.202Z,9.40
2023-04-16T15:47:18.292Z,10.37
2023-04-16T15:52:22.798Z,10.60
2023-04-16T15:57:26.410Z,10.00
2023-04-16T16:02:29.826Z,10.00
2023-04-16T16:07:34.728Z,8.80
2023-04-16T16:12:38.360Z,9.37
2023-04-16T16:17:41.833Z,10.23
2023-04-16T16:22:50.674Z,10.13
2023-04-16T16:27:53.725Z,10.87
2023-04-16T16:32:56.777Z,11.40
2023-04-16T16:38:01.877Z,12.03
2023-04-16T16:43:05.004Z,12.13
2023-04-16T16:48:09.169Z,12.27
2023-04-16T16:53:13.858Z,10.77
2023-04-16T16:58:17.181Z,11.67
2023-04-16T17:03:20.767Z,11.13
2023-04-16T17:08:25.492Z,10.47
2023-04-16T17:13:29.182Z,10.13
2023-04-16T17:18:32.296Z,10.47
2023-04-16T17:23:37.200Z,10.17
2023-04-16T17:28:41.032Z,12.33
2023-04-16T17:33:44.325Z,13.27
2023-04-16T17:38:48.999Z,15.20
2023-04-16T17:43:52.156Z,13.67
2023-04-16T17:48:55.217Z,22.73
2023-04-16T17:53:59.643Z,22.30
2023-04-16T17:59:02.849Z,17.13
2023-04-16T18:04:06.277Z,13.37
2023-04-16T18:09:11.537Z,13.17
2023-04-16T18:14:19.978Z,13.13
2023-04-16T18:19:23.132Z,13.27
2023-04-16T18:24:27.866Z,13.27
2023-04-16T18:29:33.820Z,13.20
2023-04-16T18:34:39.813Z,13.00
2023-04-16T18:39:44.209Z,12.40
2023-04-16T18:44:54.019Z,13.17
2023-04-16T18:49:57.490Z,13.70
2023-04-16T18:55:02.139Z,12.87
2023-04-16T19:00:09.647Z,13.53
2023-04-16T19:05:12.716Z,13.10
2023-04-16T19:10:17.407Z,13.43
2023-04-16T19:15:20.957Z,17.97
2023-04-16T19:20:23.949Z,14.57
2023-04-16T19:25:28.671Z,14.73
2023-04-16T19:30:32.065Z,18.23
2023-04-16T19:35:35.373Z,16.67
2023-04-16T19:40:40.273Z,18.43
2023-04-16T19:45:46.980Z,18.80
2023-04-16T19:50:50.025Z,18.93
2023-04-16T19:55:54.419Z,20.47
2023-04-16T20:00:57.698Z,20.40
2023-04-16T20:06:02.087Z,19.70
2023-04-16T20:11:08.607Z,19.63
2023-04-16T20:16:13.618Z,18.83
2023-04-16T20:21:16.757Z,18.83
2023-04-16T20:26:24.060Z,20.07
2023-04-16T20:31:27.378Z,18.17
2023-04-16T20:36:30.669Z,18.67
2023-04-16T20:41:35.333Z,18.40
2023-04-16T20:46:39.623Z,17.77
2023-04-16T20:51:42.825Z,16.87
2023-04-16T20:56:47.524Z,17.27
2023-04-16T21:01:52.067Z,17.80
2023-04-16T21:06:55.385Z,18.17
2023-04-16T21:12:00.164Z,17.87
2023-04-16T21:17:03.802Z,17.33
2023-04-16T21:22:07.622Z,18.67
2023-04-16T21:27:12.183Z,17.93
2023-04-16T21:32:15.779Z,17.93
2023-04-16T21:37:18.985Z,18.37
2023-04-16T21:42:23.523Z,16.50
2023-04-16T21:47:27.129Z,17.17
2023-04-16T21:52:30.546Z,17.97
2023-04-16T21:57:34.995Z,17.27
2023-04-16T22:02:38.105Z,19.13
2023-04-16T22:07:41.439Z,18.30
2023-04-16T22:12:46.729Z,20.07
2023-04-16T22:17:50.362Z,18.73
2023-04-16T22:22:57.947Z,19.27
2023-04-16T22:28:02.526Z,18.23
2023-04-16T22:33:05.833Z,18.23
2023-04-16T22:38:09.024Z,19.53
2023-04-16T22:43:13.387Z,18.10
2023-04-16T22:48:17.354Z,17.43
2023-04-16T22:53:20.865Z,17.83
2023-04-16T22:58:25.742Z,18.00
2023-04-16T23:03:29.251Z,17.27
2023-04-16T23:08:32.375Z,17.73
2023-04-16T23:13:37.404Z,16.83
2023-04-16T23:18:40.569Z,18.87
2023-04-16T23:23:43.738Z,19.00
2023-04-16T23:28:48.160Z,19.70
2023-04-16T23:33:51.744Z,19.37
2023-04-16T23:38:54.912Z,19.43
2023-04-16T23:43:59.434Z,20.43
2023-04-16T23:49:02.640Z,19.20
2023-04-16T23:54:06.104Z,19.13
2023-04-16T23:59:11.365Z,17.37
